Time;durP1;ratioP1;P1;durP2;ratioP2;P2;SDS_P1;SDS_P2;PMS_P1;PMS_P2;Temp;Humidity;BMP_temperature;BMP_pressure;BME280_temperature;BME280_humidity;BME280_pressure;Samples;Min_cycle;Max_cycle;Signal;HPM_P1;HPM_P2
2022/06/03 00:00:24;;;;;;;8.00;2.63;;;22.40;99.90;;;;;;4794222;29;20046;-94
2022/06/03 00:03:19;;;;;;;10.15;2.63;;;22.40;99.90;;;;;;4794789;29;20559;-92
2022/06/03 00:06:13;;;;;;;6.57;2.60;;;22.30;99.90;;;;;;4794835;29;20133;-91
2022/06/03 00:09:00;;;;;;;7.90;2.60;;;22.20;99.90;;;;;;4809313;29;20094;-93
2022/06/03 00:11:45;;;;;;;7.20;2.58;;;22.20;99.90;;;;;;4794529;29;20400;-91
2022/06/03 00:14:31;;;;;;;6.88;2.55;;;22.20;99.90;;;;;;4788336;29;20038;-91
2022/06/03 00:17:22;;;;;;;5.63;2.72;;;22.20;99.90;;;;;;4841725;29;20040;-93
2022/06/03 00:20:26;;;;;;;10.73;2.70;;;22.20;99.90;;;;;;4868132;29;20041;-92
2022/06/03 00:23:23;;;;;;;7.55;2.53;;;22.20;99.90;;;;;;4867789;29;20041;-92
2022/06/03 00:26:11;;;;;;;5.90;2.88;;;22.20;99.90;;;;;;4868118;29;20478;-92
2022/06/03 00:28:37;;;;;;;7.45;2.67;;;22.20;99.90;;;;;;4867903;29;20119;-93
2022/06/03 00:31:25;;;;;;;5.22;2.35;;;22.20;99.90;;;;;;4867962;29;20036;-91
2022/06/03 00:34:24;;;;;;;8.13;2.50;;;22.20;99.90;;;;;;4867732;29;20032;-93
2022/06/03 00:37:13;;;;;;;8.68;2.58;;;22.30;99.90;;;;;;4867550;29;20044;-93
2022/06/03 00:40:21;;;;;;;10.43;3.13;;;22.30;99.90;;;;;;4867834;29;20040;-91
2022/06/03 00:43:10;;;;;;;7.40;2.45;;;22.40;99.90;;;;;;4867644;29;20024;-92
2022/06/03 00:45:36;;;;;;;8.38;2.47;;;22.40;99.90;;;;;;4867736;29;20044;-92
2022/06/03 00:48:24;;;;;;;8.18;2.88;;;22.40;99.90;;;;;;4867754;29;20021;-92
2022/06/03 00:51:30;;;;;;;5.30;2.30;;;22.50;99.90;;;;;;4867470;29;20088;-92
2022/06/03 00:54:22;;;;;;;6.93;2.65;;;22.40;99.90;;;;;;4794421;29;20507;-91
2022/06/03 00:56:57;;;;;;;5.80;2.00;;;22.40;99.90;;;;;;4808871;29;20038;-93
2022/06/03 00:59:42;;;;;;;7.43;1.95;;;22.30;99.90;;;;;;4846202;29;20135;-91
2022/06/03 01:02:17;;;;;;;8.95;2.58;;;22.30;99.90;;;;;;4867618;29;20048;-91
2022/06/03 01:05:08;;;;;;;8.60;2.58;;;22.30;99.90;;;;;;4867679;29;20052;-91
2022/06/03 01:07:57;;;;;;;6.68;2.17;;;22.30;99.90;;;;;;4867467;29;20108;-91
2022/06/03 01:10:45;;;;;;;5.05;2.08;;;22.30;99.90;;;;;;4867215;29;20048;-90
2022/06/03 01:13:49;;;;;;;3.72;2.30;;;22.40;99.90;;;;;;4866633;29;20029;-90
2022/06/03 01:16:56;;;;;;;7.07;2.28;;;22.40;99.90;;;;;;4867242;29;20140;-90
2022/06/03 01:19:44;;;;;;;6.30;2.50;;;22.40;99.90;;;;;;4867188;29;20044;-91
2022/06/03 01:22:49;;;;;;;8.55;2.13;;;22.40;99.90;;;;;;4867446;29;20033;-91
2022/06/03 01:25:37;;;;;;;9.88;2.45;;;22.30;99.90;;;;;;4867319;29;20043;-90
2022/06/03 01:28:30;;;;;;;6.82;2.47;;;22.30;99.90;;;;;;4867167;29;20032;-90
2022/06/03 01:31:52;;;;;;;7.00;2.10;;;22.20;99.90;;;;;;4867199;29;20041;-90
2022/06/03 01:34:48;;;;;;;5.57;2.53;;;22.20;99.90;;;;;;4866989;29;20039;-91
2022/06/03 01:37:51;;;;;;;9.35;2.00;;;22.10;99.90;;;;;;4867125;29;20040;-91
2022/06/03 01:40:24;;;;;;;11.30;3.60;;;22.10;99.90;;;;;;4867054;29;20064;-93
2022/06/03 01:43:12;;;;;;;8.30;2.38;;;22.10;99.90;;;;;;4867080;29;20036;-93
2022/06/03 01:46:03;;;;;;;7.00;2.00;;;22.00;99.90;;;;;;4867259;29;20044;-92
2022/06/03 01:48:58;;;;;;;9.65;2.28;;;22.00;99.90;;;;;;4866926;29;20100;-91
2022/06/03 01:52:00;;;;;;;5.25;2.25;;;21.90;99.90;;;;;;4867022;29;20091;-91
2022/06/03 01:54:56;;;;;;;4.55;2.00;;;22.00;99.90;;;;;;4866953;29;20044;-90
2022/06/03 01:57:44;;;;;;;6.07;1.90;;;22.10;99.90;;;;;;4866973;29;20036;-91
2022/06/03 02:00:38;;;;;;;5.68;2.15;;;22.20;99.90;;;;;;4867167;29;20075;-90
2022/06/03 02:03:38;;;;;;;4.70;2.20;;;22.20;99.90;;;;;;4866797;29;20096;-90
2022/06/03 02:06:25;;;;;;;6.15;2.50;;;22.30;99.90;;;;;;4866978;29;20494;-91
2022/06/03 02:09:09;;;;;;;4.95;2.17;;;22.30;99.90;;;;;;4866583;29;20569;-89
2022/06/03 02:12:00;;;;;;;6.55;2.38;;;22.30;99.90;;;;;;4866748;29;20135;-93
2022/06/03 02:15:06;;;;;;;5.65;2.03;;;22.30;99.90;;;;;;4866710;29;20096;-93
2022/06/03 02:18:03;;;;;;;8.55;3.05;;;22.30;99.90;;;;;;4863415;29;20040;-89
2022/06/03 02:20:51;;;;;;;6.88;3.25;;;22.20;99.90;;;;;;4876473;29;20066;-91
2022/06/03 02:23:57;;;;;;;7.80;3.30;;;22.00;99.90;;;;;;4867543;29;20040;-90
2022/06/03 02:26:56;;;;;;;6.15;2.65;;;21.90;99.90;;;;;;4868944;29;20040;-90
2022/06/03 02:33:05;;;;;;;10.82;3.00;;;21.80;99.90;;;;;;4885412;29;20032;-91
2022/06/03 02:35:58;;;;;;;5.55;2.85;;;21.70;99.90;;;;;;4870030;29;20442;-90
2022/06/03 02:38:49;;;;;;;6.95;3.10;;;21.60;99.90;;;;;;4870148;29;20045;-91
2022/06/03 02:41:52;;;;;;;7.95;2.92;;;21.60;99.90;;;;;;4869921;29;20033;-91
2022/06/03 02:44:49;;;;;;;7.32;2.83;;;21.60;99.90;;;;;;4869673;29;20420;-92
2022/06/03 02:47:53;;;;;;;6.75;2.90;;;21.60;99.90;;;;;;4870009;29;20033;-93
2022/06/03 02:50:54;;;;;;;4.57;2.80;;;21.60;99.90;;;;;;4869802;29;20128;-91
2022/06/03 02:53:45;;;;;;;6.30;2.67;;;21.60;99.90;;;;;;4869686;29;20398;-93
2022/06/03 02:56:41;;;;;;;8.20;2.80;;;21.60;99.90;;;;;;4869670;29;20032;-92
2022/06/03 02:59:30;;;;;;;10.27;3.25;;;21.60;99.90;;;;;;4869538;29;20434;-92
2022/06/03 03:02:36;;;;;;;9.23;4.00;;;21.60;99.90;;;;;;4869481;29;20033;-91
2022/06/03 03:05:44;;;;;;;7.07;3.17;;;21.60;99.90;;;;;;4869580;29;20032;-90
2022/06/03 03:08:33;;;;;;;8.18;3.15;;;21.50;99.90;;;;;;4849293;29;20075;-92
2022/06/03 03:11:46;;;;;;;4.70;2.80;;;21.50;99.90;;;;;;4869287;29;20045;-91
2022/06/03 03:14:24;;;;;;;7.78;2.88;;;21.50;99.90;;;;;;4869554;29;20032;-90
2022/06/03 03:16:54;;;;;;;4.60;3.20;;;21.40;99.90;;;;;;4872450;29;20450;-90
2022/06/03 03:19:39;;;;;;;8.00;2.72;;;21.40;99.90;;;;;;4869699;29;20090;-92
2022/06/03 03:22:24;;;;;;;6.68;3.10;;;21.40;99.90;;;;;;4869291;29;20044;-90
2022/06/03 03:25:26;;;;;;;6.15;3.03;;;21.50;99.90;;;;;;4869179;29;20033;-91
2022/06/03 03:28:00;;;;;;;7.90;2.70;;;21.60;99.90;;;;;;4869028;29;20032;-91
2022/06/03 03:30:56;;;;;;;;;;;21.70;99.90;;;;;;4869423;29;20036;-92
2022/06/03 03:34:10;;;;;;;7.50;3.10;;;21.80;99.90;;;;;;4813379;29;19960;-91
2022/06/03 03:36:55;;;;;;;6.43;2.65;;;21.80;99.90;;;;;;4812889;29;20407;-91
2022/06/03 03:39:24;;;;;;;7.78;3.38;;;21.90;99.90;;;;;;4812987;29;20042;-90
2022/06/03 03:42:27;;;;;;;6.40;2.83;;;21.90;99.90;;;;;;4828125;29;20034;-91
2022/06/03 03:45:06;;;;;;;6.28;2.60;;;22.00;99.90;;;;;;4813092;29;20056;-91
2022/06/03 03:48:16;;;;;;;5.07;2.70;;;22.10;99.90;;;;;;4828125;29;20053;-92
2022/06/03 03:51:07;;;;;;;7.57;2.70;;;22.10;99.90;;;;;;4812971;29;20073;-92
2022/06/03 03:54:01;;;;;;;7.65;3.20;;;22.20;99.90;;;;;;4813134;29;20026;-90
2022/06/03 03:57:03;;;;;;;8.70;2.65;;;22.30;99.90;;;;;;4812849;29;20080;-89
2022/06/03 04:00:05;;;;;;;8.15;2.80;;;22.30;99.90;;;;;;4772268;29;20523;-90
2022/06/03 04:03:07;;;;;;;9.05;3.00;;;22.40;99.90;;;;;;4828941;29;20039;-91
2022/06/03 04:05:59;;;;;;;6.25;2.85;;;22.50;99.90;;;;;;4812664;29;20131;-92
2022/06/03 04:08:53;;;;;;;6.60;2.90;;;22.60;99.90;;;;;;4812423;29;20491;-91
2022/06/03 04:11:31;;;;;;;9.90;2.80;;;22.60;99.90;;;;;;4850516;29;20509;-91
2022/06/03 04:14:27;;;;;;;9.45;3.20;;;22.80;99.90;;;;;;4849754;29;20037;-92
2022/06/03 04:17:03;;;;;;;7.40;2.80;;;22.90;99.90;;;;;;4849934;29;20036;-93
2022/06/03 04:19:48;;;;;;;6.82;2.85;;;23.00;99.90;;;;;;4849668;29;20475;-92
2022/06/03 04:22:52;;;;;;;10.43;3.38;;;23.10;99.90;;;;;;4849737;29;20064;-92
2022/06/03 04:25:26;;;;;;;9.23;2.83;;;23.30;99.90;;;;;;4849521;29;20037;-91
2022/06/03 04:28:25;;;;;;;7.53;3.28;;;23.40;99.90;;;;;;4849563;29;20503;-90
2022/06/03 04:31:22;;;;;;;6.93;3.40;;;23.60;99.90;;;;;;4849781;29;20041;-91
2022/06/03 04:34:10;;;;;;;13.55;3.33;;;24.00;99.90;;;;;;4849512;29;20124;-91
2022/06/03 04:36:38;;;;;;;8.10;3.10;;;25.00;99.90;;;;;;4849468;29;20037;-91
2022/06/03 04:39:58;;;;;;;13.52;3.63;;;26.60;99.90;;;;;;4849286;29;20037;-91
2022/06/03 04:42:47;;;;;;;7.03;3.47;;;28.40;99.90;;;;;;4864651;29;20040;-92
2022/06/03 04:45:55;;;;;;;6.57;3.28;;;29.20;99.90;;;;;;4849406;29;20033;-92
2022/06/03 04:49:00;;;;;;;9.48;3.38;;;29.50;99.90;;;;;;4849477;29;20032;-92
2022/06/03 04:52:08;;;;;;;6.60;3.13;;;30.30;99.90;;;;;;4849233;29;20040;-92
2022/06/03 04:54:50;;;;;;;8.75;3.67;;;30.20;99.90;;;;;;4824812;29;20032;-93
2022/06/03 04:57:35;;;;;;;6.95;3.40;;;30.90;99.90;;;;;;4848988;29;20077;-92
2022/06/03 05:00:40;;;;;;;7.10;3.10;;;31.00;99.90;;;;;;4849134;29;20154;-92
2022/06/03 05:03:44;;;;;;;7.85;3.75;;;31.40;99.90;;;;;;4850138;29;20165;-91
2022/06/03 05:06:59;;;;;;;6.53;3.10;;;31.40;99.90;;;;;;4849284;29;20395;-92
2022/06/03 05:09:48;;;;;;;7.40;3.60;;;31.30;99.90;;;;;;4837347;29;20536;-91
2022/06/03 05:12:46;;;;;;;10.32;3.90;;;31.50;99.90;;;;;;4868945;29;20036;-92
2022/06/03 05:15:19;;;;;;;10.32;4.25;;;32.00;99.90;;;;;;4867383;29;20458;-88
2022/06/03 05:18:00;;;;;;;8.40;3.75;;;31.90;99.90;;;;;;4866990;29;20047;-89
2022/06/03 05:20:45;;;;;;;9.18;4.20;;;32.50;99.90;;;;;;4867414;29;20383;-92
2022/06/03 05:23:12;;;;;;;9.55;4.13;;;32.20;99.90;;;;;;4867209;29;20040;-92
2022/06/03 05:26:27;;;;;;;9.45;3.42;;;32.00;99.90;;;;;;4867788;29;20131;-93
2022/06/03 05:29:25;;;;;;;9.10;3.63;;;31.80;99.90;;;;;;4851544;29;20052;-87
2022/06/03 05:32:13;;;;;;;6.53;3.80;;;32.20;99.90;;;;;;4867070;29;20063;-90
2022/06/03 05:35:18;;;;;;;8.68;4.05;;;32.10;99.90;;;;;;4867148;29;20039;-92
2022/06/03 05:37:54;;;;;;;;;;;32.10;99.90;;;;;;4867534;29;20037;-89
2022/06/03 05:40:49;;;;;;;7.15;3.83;;;32.30;99.90;;;;;;4867148;29;20498;-89
2022/06/03 05:43:28;;;;;;;11.40;4.03;;;32.80;99.90;;;;;;4867205;29;20618;-89
2022/06/03 05:46:07;;;;;;;6.72;3.80;;;32.70;99.90;;;;;;4866790;29;20047;-89
2022/06/03 05:48:50;;;;;;;7.75;3.47;;;32.80;99.90;;;;;;4867418;29;20041;-89
2022/06/03 05:51:43;;;;;;;14.20;3.60;;;32.80;99.90;;;;;;4866912;29;20037;-89
2022/06/03 05:54:31;;;;;;;6.78;3.53;;;32.60;99.90;;;;;;4866972;29;20041;-89
2022/06/03 05:57:04;;;;;;;9.05;3.47;;;32.30;99.90;;;;;;4866902;29;20032;-89
2022/06/03 05:59:54;;;;;;;11.73;3.90;;;32.10;99.90;;;;;;4869940;29;20169;-89
2022/06/03 06:02:33;;;;;;;6.18;3.88;;;32.00;99.90;;;;;;4870618;29;20085;-91
2022/06/03 06:05:17;;;;;;;10.25;4.00;;;32.00;99.90;;;;;;4870446;29;20037;-91
2022/06/03 06:07:52;;;;;;;7.88;3.63;;;32.00;99.90;;;;;;4870428;29;20048;-89
2022/06/03 06:10:56;;;;;;;9.48;4.30;;;32.40;99.90;;;;;;4870464;29;20051;-91
2022/06/03 06:13:38;;;;;;;11.53;4.80;;;32.80;99.90;;;;;;4870283;29;20096;-91
2022/06/03 06:16:28;;;;;;;6.55;3.92;;;33.30;99.90;;;;;;4870365;29;20087;-89
2022/06/03 06:19:04;;;;;;;5.57;4.03;;;33.50;99.90;;;;;;4870056;29;20041;-91
2022/06/03 06:21:49;;;;;;;7.57;4.43;;;33.90;99.90;;;;;;4870231;29;20033;-90
2022/06/03 06:25:06;;;;;;;9.10;3.95;;;33.20;99.90;;;;;;4870110;29;20056;-90
2022/06/03 06:28:01;;;;;;;8.48;4.03;;;32.80;99.90;;;;;;4870151;29;20115;-91
2022/06/03 06:30:58;;;;;;;8.00;4.25;;;32.30;99.90;;;;;;4867836;29;20051;-91
2022/06/03 06:34:00;;;;;;;10.82;4.00;;;32.60;99.90;;;;;;4873786;29;20025;-93
2022/06/03 06:37:00;;;;;;;13.32;4.57;;;33.10;99.90;;;;;;4871477;29;20069;-93
2022/06/03 06:40:02;;;;;;;8.48;4.28;;;33.60;99.90;;;;;;4876155;29;20478;-92
2022/06/03 06:43:06;;;;;;;10.40;4.88;;;33.30;99.90;;;;;;4874029;29;20394;-93
2022/06/03 06:45:36;;;;;;;9.10;4.22;;;33.40;99.90;;;;;;4870812;29;20056;-90
2022/06/03 06:48:34;;;;;;;6.85;4.15;;;33.60;99.90;;;;;;4870200;29;20068;-90
2022/06/03 06:51:10;;;;;;;10.73;4.72;;;34.10;99.90;;;;;;4870075;29;20032;-90
2022/06/03 06:53:55;;;;;;;8.25;4.25;;;34.20;99.90;;;;;;4870074;29;20036;-92
2022/06/03 06:57:13;;;;;;;7.28;4.93;;;33.90;99.90;;;;;;4869771;29;20032;-90
2022/06/03 07:00:18;;;;;;;11.70;5.15;;;33.80;99.90;;;;;;4796234;29;20042;-90
2022/06/03 07:03:11;;;;;;;9.13;4.35;;;33.70;99.90;;;;;;4885164;29;20025;-90
2022/06/03 07:05:44;;;;;;;8.77;4.18;;;33.40;99.90;;;;;;4869501;29;20044;-90
2022/06/03 07:08:11;;;;;;;;;;;33.90;99.90;;;;;;4869594;29;20036;-90
2022/06/03 07:11:08;;;;;;;10.57;4.40;;;34.20;99.90;;;;;;4868391;29;20493;-91
2022/06/03 07:13:57;;;;;;;7.10;4.38;;;34.40;99.90;;;;;;4869206;29;20131;-90
2022/06/03 07:20:01;;;;;;;8.13;4.95;;;34.50;99.90;;;;;;4884458;29;20048;-91
2022/06/03 07:22:45;;;;;;;8.60;4.18;;;34.40;99.90;;;;;;4869200;29;20037;-90
2022/06/03 07:25:30;;;;;;;5.18;4.40;;;33.80;99.90;;;;;;4869399;29;20032;-92
2022/06/03 07:28:35;;;;;;;4.95;4.47;;;34.40;99.90;;;;;;4869205;29;20044;-91
2022/06/03 07:31:54;;;;;;;9.95;4.78;;;34.80;99.90;;;;;;4869426;29;20040;-90
2022/06/03 07:34:30;;;;;;;9.35;4.70;;;35.20;99.90;;;;;;4795401;29;20042;-91
2022/06/03 07:37:01;;;;;;;13.20;5.10;;;34.60;99.90;;;;;;4810170;29;20053;-90
2022/06/03 07:39:30;;;;;;;11.88;5.20;;;34.70;99.90;;;;;;4810819;29;20548;-91
2022/06/03 07:42:12;;;;;;;10.48;4.55;;;34.90;99.90;;;;;;4796007;29;20066;-93
2022/06/03 07:44:53;;;;;;;8.55;5.03;;;34.90;99.90;;;;;;4826216;29;20049;-92
2022/06/03 07:47:23;;;;;;;7.57;5.35;;;35.20;99.90;;;;;;4795533;29;20038;-87
2022/06/03 07:50:03;;;;;;;6.47;4.45;;;35.00;99.90;;;;;;4810640;29;20073;-88
2022/06/03 07:52:54;;;;;;;9.07;5.30;;;34.70;99.90;;;;;;4809925;29;20128;-90
2022/06/03 07:55:25;;;;;;;8.60;5.10;;;34.60;99.90;;;;;;4789701;29;20085;-89
2022/06/03 07:57:58;;;;;;;6.00;5.00;;;34.80;99.90;;;;;;4809911;29;20054;-89
2022/06/03 08:00:26;;;;;;;7.53;5.05;;;34.40;99.90;;;;;;4809933;29;20120;-89
2022/06/03 08:03:08;;;;;;;6.95;5.13;;;34.00;99.90;;;;;;4809649;29;20038;-88
2022/06/03 08:05:35;;;;;;;5.18;4.57;;;33.80;99.90;;;;;;4809615;29;20037;-89
2022/06/03 08:10:57;;;;;;;11.10;4.75;;;34.10;99.90;;;;;;4877016;29;20051;-90
2022/06/03 08:13:26;;;;;;;9.65;4.85;;;34.40;99.90;;;;;;4868208;29;20032;-92
2022/06/03 08:16:19;;;;;;;5.55;4.57;;;34.20;99.90;;;;;;4868084;29;20037;-90
2022/06/03 08:18:47;;;;;;;12.07;4.47;;;34.20;99.90;;;;;;4868080;29;20044;-90
2022/06/03 08:21:21;;;;;;;11.07;4.90;;;34.00;99.90;;;;;;4883513;29;20046;-89
2022/06/03 08:23:48;;;;;;;6.35;4.03;;;34.00;99.90;;;;;;4883788;29;20097;-88
2022/06/03 08:26:19;;;;;;;6.85;4.07;;;33.90;99.90;;;;;;4867860;29;20024;-90
2022/06/03 08:28:53;;;;;;;10.15;4.68;;;33.90;99.90;;;;;;4868064;29;20064;-89
2022/06/03 08:31:24;;;;;;;9.23;4.80;;;33.90;99.90;;;;;;4883517;29;20032;-90
2022/06/03 08:33:58;;;;;;;7.28;4.30;;;33.90;99.90;;;;;;4867939;29;20041;-89
2022/06/03 08:36:32;;;;;;;6.75;4.63;;;34.00;99.90;;;;;;4867802;29;20059;-89
2022/06/03 08:39:27;;;;;;;7.30;4.03;;;34.00;99.90;;;;;;4883335;29;20036;-89
2022/06/03 08:42:25;;;;;;;5.40;3.63;;;33.70;99.90;;;;;;4861120;29;20039;-89
2022/06/03 08:44:54;;;;;;;7.38;4.13;;;33.70;99.90;;;;;;4867675;29;20029;-90
2022/06/03 08:47:44;;;;;;;6.70;4.78;;;33.80;99.90;;;;;;4867614;29;20498;-89
2022/06/03 08:50:38;;;;;;;8.73;4.75;;;33.80;99.90;;;;;;4867665;29;20506;-91
2022/06/03 08:53:23;;;;;;;;;;;33.80;99.90;;;;;;4876062;29;20032;-90
2022/06/03 08:55:52;;;;;;;10.73;4.13;;;34.00;99.90;;;;;;4867526;29;19918;-90
2022/06/03 08:58:28;;;;;;;6.13;4.10;;;33.90;99.90;;;;;;4867664;29;20048;-89
2022/06/03 09:01:14;;;;;;;7.35;3.90;;;33.90;99.90;;;;;;4868295;29;20415;-90
2022/06/03 09:03:53;;;;;;;5.93;4.28;;;33.90;99.90;;;;;;4867397;29;20036;-89
2022/06/03 09:06:48;;;;;;;5.07;4.35;;;33.40;99.90;;;;;;4867637;29;20065;-88
2022/06/03 09:09:41;;;;;;;6.47;4.45;;;33.30;99.90;;;;;;4868440;29;20052;-90
2022/06/03 09:12:28;;;;;;;9.85;5.18;;;33.80;99.90;;;;;;4867170;29;20447;-89
2022/06/03 09:15:00;;;;;;;8.75;4.07;;;34.10;99.90;;;;;;4854907;29;20041;-89
2022/06/03 09:18:04;;;;;;;8.90;4.18;;;33.90;99.90;;;;;;4867587;29;20032;-88
2022/06/03 09:20:42;;;;;;;9.17;4.33;;;33.60;99.90;;;;;;4867221;29;20037;-90
2022/06/03 09:23:17;;;;;;;5.88;4.47;;;33.90;99.90;;;;;;4867223;29;20036;-89
2022/06/03 09:25:50;;;;;;;9.00;4.05;;;34.10;99.90;;;;;;4867159;29;20071;-88
2022/06/03 09:28:31;;;;;;;5.75;5.07;;;34.20;99.90;;;;;;4866804;29;20064;-89
2022/06/03 09:31:02;;;;;;;8.63;4.97;;;33.90;99.90;;;;;;4867040;29;20075;-88
2022/06/03 09:33:30;;;;;;;11.55;4.45;;;34.20;99.90;;;;;;4866615;29;20490;-90
2022/06/03 09:36:03;;;;;;;19.58;9.02;;;34.10;99.90;;;;;;4866915;29;20036;-90
2022/06/03 09:38:39;;;;;;;16.88;7.68;;;34.00;99.90;;;;;;4867031;29;20040;-89
2022/06/03 09:41:06;;;;;;;18.00;9.45;;;33.70;99.90;;;;;;4867036;29;20033;-89
2022/06/03 09:43:41;;;;;;;11.30;6.18;;;33.90;99.90;;;;;;4867000;29;20040;-88
2022/06/03 09:46:12;;;;;;;7.38;4.55;;;33.90;99.90;;;;;;4866950;29;20407;-88
2022/06/03 09:48:41;;;;;;;8.95;5.00;;;33.60;99.90;;;;;;4867001;29;20036;-89
2022/06/03 09:54:27;;;;;;;9.98;5.43;;;33.40;99.90;;;;;;4882798;29;20093;-88
2022/06/03 09:56:58;;;;;;;10.73;4.93;;;33.00;99.90;;;;;;4867047;29;20029;-88
2022/06/03 09:59:27;;;;;;;8.73;5.13;;;33.10;99.90;;;;;;4866669;29;20045;-89
2022/06/03 10:01:54;;;;;;;6.88;4.50;;;32.80;99.90;;;;;;4866720;29;20025;-90
2022/06/03 10:04:24;;;;;;;9.15;4.93;;;33.10;99.90;;;;;;4866901;29;20032;-89
2022/06/03 10:06:51;;;;;;;8.50;4.60;;;33.40;99.90;;;;;;4882194;29;20020;-90
2022/06/03 10:12:49;;;;;;;12.60;5.30;;;33.80;99.90;;;;;;4895843;29;20091;-94
2022/06/03 10:21:49;;;;;;;8.73;4.88;;;33.50;99.90;;;;;;5087680;23;20027;-93
2022/06/03 10:24:48;;;;;;;7.88;5.20;;;33.40;99.90;;;;;;4812941;29;20052;-93
2022/06/03 10:27:30;;;;;;;8.30;5.20;;;33.60;99.90;;;;;;4793475;29;20078;-94
2022/06/03 10:30:13;;;;;;;7.07;4.60;;;33.40;99.90;;;;;;4803590;29;20035;-94
2022/06/03 10:32:51;;;;;;;10.52;5.28;;;33.40;99.90;;;;;;4804393;29;20047;-94
2022/06/03 10:35:26;;;;;;;5.35;4.63;;;33.90;99.90;;;;;;4803751;29;20050;-93
2022/06/03 10:37:59;;;;;;;11.27;5.32;;;33.90;99.90;;;;;;4790145;29;20042;-93
2022/06/03 10:40:27;;;;;;;8.02;4.40;;;33.80;99.90;;;;;;4796281;29;20035;-94
2022/06/03 10:43:05;;;;;;;12.60;5.40;;;33.40;99.90;;;;;;4795468;29;20129;-94
2022/06/03 10:46:18;;;;;;;8.20;4.53;;;33.40;99.90;;;;;;4813979;29;20038;-93
2022/06/03 10:48:46;;;;;;;7.03;4.30;;;33.40;99.90;;;;;;4808279;29;20039;-93
2022/06/03 11:01:06;;;;;;;7.57;4.30;;;33.70;99.90;;;;;;4793244;29;20039;-91
2022/06/03 11:02:36;;;;;;;8.98;4.93;;;33.40;99.90;;;;;;4795446;29;20076;-91
2022/06/03 11:05:13;;;;;;;7.75;4.40;;;33.30;99.90;;;;;;4797181;29;20035;-90
2022/06/03 11:07:41;;;;;;;6.18;4.45;;;33.10;99.90;;;;;;4793239;29;20035;-92
2022/06/03 11:10:13;;;;;;;9.77;5.32;;;33.10;99.90;;;;;;4798217;29;20067;-93
2022/06/03 11:12:42;;;;;;;11.40;5.50;;;33.30;99.90;;;;;;4801437;29;20038;-94
2022/06/03 11:15:36;;;;;;;10.80;5.18;;;33.50;99.90;;;;;;4801094;29;20039;-92
2022/06/03 11:18:20;;;;;;;12.00;5.90;;;33.40;99.90;;;;;;4794630;29;20552;-93
2022/06/03 11:20:50;;;;;;;8.07;5.10;;;33.60;99.90;;;;;;4793333;29;20167;-91
2022/06/03 11:23:18;;;;;;;10.60;5.20;;;33.70;99.90;;;;;;4806814;29;20050;-90
2022/06/03 11:25:51;;;;;;;8.52;5.55;;;33.80;99.90;;;;;;4826225;29;20064;-91
2022/06/03 11:28:24;;;;;;;9.20;6.00;;;33.60;99.90;;;;;;4826579;29;20039;-90
2022/06/03 11:31:07;;;;;;;15.82;5.55;;;33.70;99.90;;;;;;4826200;29;20038;-90
2022/06/03 11:33:53;;;;;;;7.87;5.97;;;33.70;99.90;;;;;;4826669;29;20514;-90
2022/06/03 11:36:50;;;;;;;8.00;5.20;;;33.50;99.90;;;;;;4791171;29;20034;-92
2022/06/03 12:06:20;;;;;;;12.30;7.15;;;33.60;99.90;;;;;;4875986;29;20057;-93
2022/06/03 12:09:14;;;;;;;9.70;6.63;;;33.60;99.90;;;;;;4866395;29;20042;-92
2022/06/03 12:14:35;;;;;;;10.18;5.90;;;33.50;99.90;;;;;;4829843;29;20038;-90
2022/06/03 12:17:14;;;;;;;9.75;6.53;;;33.70;99.90;;;;;;4830749;29;20026;-91
2022/06/03 12:19:48;;;;;;;8.32;6.07;;;33.60;99.90;;;;;;4828757;29;20073;-88
2022/06/03 12:22:34;;;;;;;8.18;5.43;;;33.40;99.90;;;;;;4831062;29;20033;-87
2022/06/03 12:25:06;;;;;;;15.05;5.75;;;33.50;99.90;;;;;;4828517;29;20054;-90
2022/06/03 12:27:40;;;;;;;8.02;5.45;;;33.10;99.90;;;;;;4830148;29;20038;-91
2022/06/03 12:30:21;;;;;;;10.27;5.30;;;32.90;99.90;;;;;;4829518;29;20038;-91
2022/06/03 12:33:20;;;;;;;13.43;5.10;;;33.00;99.90;;;;;;4829185;29;20090;-91
2022/06/03 12:36:04;;;;;;;8.38;5.25;;;33.00;99.90;;;;;;4828851;29;20034;-90
2022/06/03 12:38:51;;;;;;;;;;;33.00;99.90;;;;;;4830617;29;20076;-91
2022/06/03 12:41:45;;;;;;;11.88;4.88;;;32.70;99.90;;;;;;4801376;29;19952;-92
2022/06/03 12:44:42;;;;;;;9.40;4.68;;;32.90;99.90;;;;;;4845813;29;20034;-89
2022/06/03 12:47:44;;;;;;;9.77;5.43;;;33.00;99.90;;;;;;4829041;29;20033;-91
2022/06/03 12:50:31;;;;;;;9.70;5.68;;;33.10;99.90;;;;;;4828963;29;20113;-91
2022/06/03 12:53:17;;;;;;;7.20;5.28;;;33.20;99.90;;;;;;4830962;29;20037;-91
2022/06/03 12:56:02;;;;;;;11.32;5.50;;;32.90;99.90;;;;;;4814108;29;20030;-91
2022/06/03 12:58:45;;;;;;;11.52;5.20;;;33.10;99.90;;;;;;4829542;29;20050;-91
2022/06/03 13:01:12;;;;;;;7.88;5.20;;;33.10;99.90;;;;;;4847872;29;20038;-88
2022/06/03 13:03:42;;;;;;;14.48;5.82;;;33.00;99.90;;;;;;4834247;29;20037;-89
2022/06/03 13:06:09;;;;;;;9.93;5.47;;;33.10;99.90;;;;;;4835433;29;20046;-89
2022/06/03 13:11:30;;;;;;;9.38;5.95;;;33.10;99.90;;;;;;4833019;29;20034;-89
2022/06/03 13:13:57;;;;;;;11.43;5.75;;;33.00;99.90;;;;;;4833939;29;20128;-91
2022/06/03 13:16:24;;;;;;;11.43;5.70;;;32.90;99.90;;;;;;4817999;29;20129;-90
2022/06/03 13:18:56;;;;;;;15.52;6.00;;;32.80;99.90;;;;;;4834899;29;20044;-89
2022/06/03 13:21:29;;;;;;;12.82;6.30;;;32.90;99.90;;;;;;4835504;29;20117;-91
2022/06/03 13:24:19;;;;;;;10.27;6.43;;;33.00;99.90;;;;;;4835857;29;20080;-90
2022/06/03 13:26:49;;;;;;;7.60;6.35;;;33.10;99.90;;;;;;4835819;29;20041;-89
2022/06/03 13:29:44;;;;;;;8.30;6.20;;;33.30;99.90;;;;;;4834701;29;20042;-90
2022/06/03 13:32:36;;;;;;;8.32;6.20;;;33.10;99.90;;;;;;4850507;29;20110;-90
2022/06/03 13:35:19;;;;;;;10.35;7.00;;;33.10;99.90;;;;;;4835983;29;20463;-90
2022/06/03 13:37:50;;;;;;;9.53;6.93;;;33.00;99.90;;;;;;4834804;29;20053;-89
2022/06/03 13:40:25;;;;;;;7.65;6.85;;;32.90;99.90;;;;;;4836251;29;20069;-90
2022/06/03 13:42:58;;;;;;;8.68;7.55;;;32.70;99.90;;;;;;4835549;29;20037;-90
2022/06/03 13:46:07;;;;;;;12.30;8.25;;;32.80;99.90;;;;;;4820205;29;20547;-89
2022/06/03 13:48:45;;;;;;;11.65;7.75;;;32.80;99.90;;;;;;4816528;29;20038;-90
2022/06/03 13:51:18;;;;;;;8.05;7.22;;;32.80;99.90;;;;;;4835685;29;20080;-89
2022/06/03 13:53:54;;;;;;;7.70;6.97;;;32.80;99.90;;;;;;4835255;29;20030;-90
2022/06/03 13:56:26;;;;;;;9.55;7.97;;;32.70;99.90;;;;;;4833995;29;20038;-89
2022/06/03 13:58:54;;;;;;;9.15;8.15;;;32.80;99.90;;;;;;4833401;29;20500;-89
2022/06/03 14:01:33;;;;;;;9.30;8.50;;;32.70;99.90;;;;;;4834409;29;20082;-90
2022/06/03 14:04:13;;;;;;;12.43;8.20;;;32.60;99.90;;;;;;4832530;29;20082;-89
2022/06/03 14:06:45;;;;;;;9.48;8.23;;;32.50;99.90;;;;;;4834423;29;20050;-89
2022/06/03 14:09:34;;;;;;;10.45;8.15;;;32.60;99.90;;;;;;4849762;29;20105;-89
2022/06/03 14:12:06;;;;;;;9.43;7.88;;;32.70;99.90;;;;;;4835018;29;20174;-90
2022/06/03 14:15:12;;;;;;;10.32;8.40;;;32.40;99.90;;;;;;4849969;29;20064;-88
2022/06/03 14:17:51;;;;;;;10.43;9.43;;;32.40;99.90;;;;;;4833691;29;20037;-89
2022/06/03 14:20:52;;;;;;;9.30;8.60;;;32.30;99.90;;;;;;4836197;29;20515;-89
2022/06/03 14:23:40;;;;;;;8.48;7.80;;;32.30;99.90;;;;;;4836535;29;20124;-89
2022/06/03 14:26:14;;;;;;;9.60;8.50;;;32.60;99.90;;;;;;4837471;29;20042;-90
2022/06/03 14:28:52;;;;;;;9.55;8.48;;;33.00;99.90;;;;;;4838410;29;20057;-90
2022/06/03 14:31:44;;;;;;;11.25;8.55;;;32.80;99.90;;;;;;4836914;29;20090;-89
2022/06/03 14:34:35;;;;;;;9.98;8.90;;;32.60;99.90;;;;;;4822910;29;20042;-91
2022/06/03 14:37:07;;;;;;;13.13;8.77;;;32.70;99.90;;;;;;4836846;29;20030;-91
2022/06/03 14:39:39;;;;;;;9.57;8.52;;;32.60;99.90;;;;;;4838486;29;20037;-91
2022/06/03 14:42:10;;;;;;;9.38;8.45;;;32.60;99.90;;;;;;4822755;29;20025;-88
2022/06/03 14:44:42;;;;;;;9.60;8.68;;;32.50;99.90;;;;;;4837582;29;20105;-88
2022/06/03 14:47:31;;;;;;;9.15;8.30;;;32.40;99.90;;;;;;4838206;29;20030;-92
2022/06/03 14:50:16;;;;;;;10.82;9.45;;;32.50;99.90;;;;;;4832985;29;20038;-93
2022/06/03 14:52:55;;;;;;;9.73;8.93;;;32.40;99.90;;;;;;4835727;29;20065;-91
2022/06/03 14:55:33;;;;;;;9.57;8.68;;;32.60;99.90;;;;;;4834692;29;20034;-92
2022/06/03 15:02:00;;;;;;;10.45;8.25;;;32.50;99.90;;;;;;4970460;23;20056;-94
2022/06/03 15:05:12;;;;;;;13.25;8.63;;;32.60;99.90;;;;;;4917021;29;20104;-92
2022/06/03 15:08:07;;;;;;;9.27;7.70;;;32.50;99.90;;;;;;4900806;29;20051;-91
2022/06/03 15:10:35;;;;;;;10.32;7.75;;;32.30;99.90;;;;;;4894115;29;20020;-94
2022/06/03 15:13:05;;;;;;;8.30;7.55;;;32.10;99.90;;;;;;4894743;29;20034;-93
2022/06/03 15:15:35;;;;;;;8.57;7.88;;;32.30;99.90;;;;;;4897341;29;20390;-92
2022/06/03 15:18:14;;;;;;;8.57;7.68;;;32.30;99.90;;;;;;4912439;29;20039;-91
2022/06/03 15:20:54;;;;;;;12.02;7.65;;;32.40;99.90;;;;;;4894539;29;20104;-91
2022/06/03 15:23:24;;;;;;;14.82;8.18;;;32.50;99.90;;;;;;4890237;29;20029;-91
2022/06/03 15:25:54;;;;;;;12.25;7.78;;;32.40;99.90;;;;;;4895377;29;20089;-91